world map with BIIS marked

BIIS - Airport

This information may not be accurate or current and is not valid for navigation or flight planning. No warranty of fitness for any purpose is made or implied.

flag of Iceland

Donate via PayPal

Additional information is available on the NEW Great Circle Mapper

Location
City:  Ísafjörður, Iceland
Near (Alt.):Isafjordur
ICAO / IATA:BIIS / IFJ

Details
Type:Airport (Aerodrome, Airfield)
Latitude:66°03'29"N (66.058056)
Longitude:23°08'07"W (-23.135277)
Elevation:8 ft (2 m)
Runways:1
Longest:4593 × 98 ft (1400 × 30 m)

Time
Timezone:UTC+0
Local Time:

Weather
METAR:BIIS  021600Z 00000KT 9000 DZBR FEW006 SCT016 BKN020 07/06 Q0999

Related Locations
Nearby:
Farthest:NZIR: 11589 mi / 18651 km
McMurdo Station [Ice Runway], Ross Island, AQ

Find:

   beyond  
but within

Other Information
Maps:
Links:
Sources:

  


 


Great Circle Mapper   Great Circle Mapper
Great Circle Mapper FAQ   Great Circle Mapper FAQ
  Karl's Home Page
KLS²   KLS² Home
   GC on Facebook
  Flugnet
Airlines of the World   Airlines of the World
Donate via PayPal


Copyright © 2004-2014, Karl L. Swartz. All rights reserved.
All trademarks mentioned herein belong to their respective owners.

Please see credits for attribution and copyright information.

Karl Swartz <karl@kls2.com>
  Powered by FreeBSD
Valid HTML 4.01!
Labeled with ICRA
hCard Microformat
Geo Microformat